createdAt,value
2022-07-31T00:00:49.077Z,65.00
2022-07-31T00:03:18.261Z,65.80
2022-07-31T00:05:46.077Z,66.00
2022-07-31T00:08:15.159Z,65.80
2022-07-31T00:10:42.939Z,65.80
2022-07-31T00:13:10.771Z,65.80
2022-07-31T00:15:38.588Z,66.20
2022-07-31T00:18:06.470Z,66.50
2022-07-31T00:20:35.930Z,66.50
2022-07-31T00:23:03.886Z,66.60
2022-07-31T00:25:32.054Z,66.60
2022-07-31T00:28:00.218Z,66.50
2022-07-31T00:30:28.002Z,66.80
2022-07-31T00:32:55.847Z,67.20
2022-07-31T00:35:23.860Z,67.20
2022-07-31T00:38:02.181Z,67.40
2022-07-31T00:40:48.172Z,67.70
2022-07-31T00:43:16.431Z,68.00
2022-07-31T00:45:44.683Z,67.90
2022-07-31T00:48:12.595Z,68.80
2022-07-31T00:50:40.594Z,69.10
2022-07-31T00:53:09.763Z,69.20
2022-07-31T00:55:51.387Z,69.10
2022-07-31T00:58:20.308Z,68.90
2022-07-31T01:00:48.995Z,69.20
2022-07-31T01:03:18.532Z,68.90
2022-07-31T01:05:46.375Z,68.80
2022-07-31T01:08:16.352Z,69.00
2022-07-31T01:10:53.255Z,69.10
2022-07-31T01:13:27.525Z,68.70
2022-07-31T01:15:56.514Z,68.60
2022-07-31T01:18:25.724Z,68.40
2022-07-31T01:20:56.567Z,67.30
2022-07-31T01:24:03.960Z,67.10
2022-07-31T01:26:42.173Z,66.90
2022-07-31T01:29:19.299Z,67.10
2022-07-31T01:31:50.691Z,66.50
2022-07-31T01:34:26.563Z,67.30
2022-07-31T01:37:01.651Z,68.70
2022-07-31T01:39:34.048Z,69.20
2022-07-31T01:42:06.085Z,68.70
2022-07-31T01:44:41.458Z,68.00
2022-07-31T01:47:10.456Z,67.30
2022-07-31T01:49:39.260Z,67.30
2022-07-31T01:52:08.487Z,67.30
2022-07-31T01:54:37.406Z,67.20
2022-07-31T01:57:07.083Z,67.80
2022-07-31T01:59:38.975Z,67.80
2022-07-31T02:02:13.318Z,68.70
2022-07-31T02:04:41.608Z,68.70
2022-07-31T02:07:10.968Z,69.70
2022-07-31T02:09:57.926Z,70.30
2022-07-31T02:12:32.130Z,70.00
2022-07-31T02:15:05.396Z,69.60
2022-07-31T02:17:33.858Z,70.20
2022-07-31T02:20:03.579Z,70.10
2022-07-31T02:22:31.415Z,70.10
2022-07-31T02:24:59.879Z,69.90
2022-07-31T02:27:57.040Z,70.10
2022-07-31T02:30:19.767Z,70.30
2022-07-31T02:32:49.464Z,70.90
2022-07-31T02:35:19.889Z,71.80
2022-07-31T02:37:51.302Z,72.40
2022-07-31T02:40:19.990Z,72.80
2022-07-31T02:42:49.012Z,72.90
2022-07-31T02:45:25.177Z,72.80
2022-07-31T02:47:53.110Z,72.90
2022-07-31T02:50:21.170Z,72.90
2022-07-31T02:52:49.179Z,72.80
2022-07-31T02:55:18.309Z,72.80
2022-07-31T02:57:48.089Z,73.00
2022-07-31T03:00:22.677Z,73.20
2022-07-31T03:02:53.798Z,73.20
2022-07-31T03:05:22.024Z,73.00
2022-07-31T03:07:50.511Z,73.30
2022-07-31T03:10:18.351Z,73.10
2022-07-31T03:12:49.935Z,73.20
2022-07-31T03:15:20.441Z,73.20
2022-07-31T03:17:49.866Z,72.80
2022-07-31T03:20:19.665Z,73.20
2022-07-31T03:22:47.877Z,73.80
2022-07-31T03:25:20.069Z,74.10
2022-07-31T03:27:56.404Z,74.10
2022-07-31T03:30:25.886Z,74.40
2022-07-31T03:32:54.002Z,74.60
2022-07-31T03:35:24.197Z,74.80
2022-07-31T03:37:52.250Z,74.70
2022-07-31T03:40:20.222Z,74.70
2022-07-31T03:42:49.798Z,75.00
2022-07-31T03:45:18.249Z,75.20
2022-07-31T03:47:46.243Z,75.40
2022-07-31T03:50:15.779Z,75.50
2022-07-31T03:52:46.160Z,75.20
2022-07-31T03:55:14.483Z,75.80
2022-07-31T03:57:42.921Z,76.00
2022-07-31T04:00:16.969Z,75.80
2022-07-31T04:02:46.157Z,76.10
2022-07-31T04:05:14.280Z,76.30
2022-07-31T04:07:42.105Z,75.60
2022-07-31T04:10:12.356Z,75.90
2022-07-31T04:12:40.277Z,75.60
2022-07-31T04:15:08.859Z,74.80
2022-07-31T04:17:37.191Z,73.70
2022-07-31T04:20:07.599Z,73.80
2022-07-31T04:22:35.703Z,73.70
2022-07-31T04:25:05.599Z,73.70
2022-07-31T04:27:36.517Z,73.30
2022-07-31T04:30:16.441Z,72.60
2022-07-31T04:32:44.347Z,71.80
2022-07-31T04:35:13.638Z,69.90
2022-07-31T04:37:48.561Z,67.30
2022-07-31T04:40:16.980Z,64.30
2022-07-31T04:42:46.186Z,62.00
2022-07-31T04:45:14.063Z,61.20
2022-07-31T04:47:41.926Z,61.90
2022-07-31T04:50:10.567Z,60.70
2022-07-31T04:52:38.390Z,59.70
2022-07-31T04:55:06.886Z,58.20
2022-07-31T04:57:34.709Z,57.60
2022-07-31T05:00:04.757Z,56.80
2022-07-31T05:02:32.612Z,55.50
2022-07-31T05:05:00.419Z,55.20
2022-07-31T05:07:29.032Z,55.70
2022-07-31T05:09:57.193Z,56.30
2022-07-31T05:12:25.094Z,57.70
2022-07-31T05:14:53.435Z,58.60
2022-07-31T05:17:22.642Z,59.00
2022-07-31T05:19:50.447Z,59.40
2022-07-31T05:22:18.934Z,59.40
2022-07-31T05:24:46.857Z,59.30
2022-07-31T05:27:14.706Z,59.30
2022-07-31T05:29:42.509Z,58.20
2022-07-31T05:32:10.549Z,58.80
2022-07-31T05:34:39.813Z,59.30
2022-07-31T05:37:07.888Z,59.90
2022-07-31T05:39:35.696Z,58.70
2022-07-31T05:42:03.642Z,57.50
2022-07-31T05:44:31.609Z,57.20
2022-07-31T05:49:28.908Z,54.60
2022-07-31T05:51:58.167Z,52.30
2022-07-31T05:54:25.986Z,52.30
2022-07-31T05:56:53.791Z,48.40
2022-07-31T05:59:21.592Z,48.30
2022-07-31T06:01:49.957Z,47.80
2022-07-31T06:04:17.810Z,46.40
2022-07-31T06:06:45.620Z,46.20
2022-07-31T06:09:14.832Z,45.90
2022-07-31T06:11:42.656Z,47.30
2022-07-31T06:14:10.535Z,48.40
2022-07-31T06:16:38.417Z,49.60
2022-07-31T06:19:06.225Z,50.30
2022-07-31T06:21:34.051Z,50.40
2022-07-31T06:24:02.378Z,49.70
2022-07-31T06:26:31.617Z,50.10
2022-07-31T06:28:59.453Z,49.40
2022-07-31T06:31:27.309Z,49.70
2022-07-31T06:33:55.161Z,50.20
2022-07-31T06:36:22.974Z,50.20
2022-07-31T06:38:50.852Z,50.60
2022-07-31T06:41:32.637Z,50.80
2022-07-31T06:44:01.815Z,50.70
2022-07-31T06:46:29.805Z,51.10
2022-07-31T06:48:57.736Z,50.70
2022-07-31T06:51:32.711Z,50.80
2022-07-31T06:54:01.109Z,48.70
2022-07-31T06:56:29.054Z,47.30
2022-07-31T06:58:56.925Z,46.20
2022-07-31T07:01:26.209Z,45.50
2022-07-31T07:03:54.658Z,44.30
2022-07-31T07:06:22.819Z,42.90
2022-07-31T07:08:51.023Z,42.70
2022-07-31T07:11:19.489Z,42.50
2022-07-31T07:13:47.547Z,41.30
2022-07-31T07:16:16.036Z,39.70
2022-07-31T07:18:45.206Z,39.30
2022-07-31T07:21:13.322Z,40.10
2022-07-31T07:23:41.383Z,41.10
2022-07-31T07:26:09.577Z,40.30
2022-07-31T07:28:37.641Z,40.80
2022-07-31T07:31:06.166Z,39.50
2022-07-31T07:33:41.790Z,38.40
2022-07-31T07:36:23.285Z,39.50
2022-07-31T07:38:53.574Z,39.40
2022-07-31T07:41:23.601Z,39.50
2022-07-31T07:43:52.569Z,38.10
2022-07-31T07:46:21.205Z,38.20
2022-07-31T07:48:50.695Z,38.50
2022-07-31T07:51:21.408Z,38.80
2022-07-31T07:53:49.385Z,39.00
2022-07-31T07:56:17.555Z,39.10
2022-07-31T07:58:45.601Z,38.10
2022-07-31T08:01:14.166Z,37.40
2022-07-31T08:03:48.521Z,37.40
2022-07-31T08:06:21.190Z,37.80
2022-07-31T08:08:49.004Z,38.20
2022-07-31T08:11:17.835Z,38.00
2022-07-31T08:13:50.598Z,37.70
2022-07-31T08:16:19.626Z,38.60
2022-07-31T08:18:47.623Z,38.60
2022-07-31T08:21:15.519Z,38.70
2022-07-31T08:23:44.736Z,37.70
2022-07-31T08:26:13.954Z,37.90
2022-07-31T08:28:50.491Z,38.30
2022-07-31T08:31:19.863Z,37.80
2022-07-31T08:33:48.418Z,37.20
2022-07-31T08:36:16.272Z,38.20
2022-07-31T08:38:45.523Z,37.70
2022-07-31T08:41:14.819Z,36.80
2022-07-31T08:44:00.396Z,35.90
2022-07-31T08:46:32.449Z,35.70
2022-07-31T08:49:03.788Z,37.30
2022-07-31T08:52:01.798Z,36.40
2022-07-31T08:54:27.434Z,35.80
2022-07-31T08:56:55.269Z,36.40
2022-07-31T08:59:23.168Z,36.90
2022-07-31T09:01:51.409Z,35.30
2022-07-31T09:04:19.268Z,35.20
2022-07-31T09:06:47.198Z,34.50
2022-07-31T09:09:17.828Z,35.60
2022-07-31T09:11:53.787Z,36.10
2022-07-31T09:14:29.434Z,36.40
2022-07-31T09:16:58.240Z,35.90
2022-07-31T09:19:51.724Z,35.80
2022-07-31T09:22:23.382Z,35.70
2022-07-31T09:24:51.613Z,36.00
2022-07-31T09:27:21.351Z,36.40
2022-07-31T09:29:50.025Z,35.90
2022-07-31T09:32:19.275Z,35.50
2022-07-31T09:34:47.980Z,35.40
2022-07-31T09:37:17.753Z,34.30
2022-07-31T09:39:52.196Z,35.00
2022-07-31T09:42:25.054Z,35.20
2022-07-31T09:44:53.235Z,35.20
2022-07-31T09:47:22.992Z,36.00
2022-07-31T09:49:55.536Z,36.80
2022-07-31T09:52:24.159Z,37.00
2022-07-31T09:55:02.736Z,37.30
2022-07-31T09:57:53.902Z,37.30
2022-07-31T10:00:21.902Z,37.70
2022-07-31T10:02:50.543Z,37.40
2022-07-31T10:05:19.475Z,38.20
2022-07-31T10:07:48.043Z,38.00
2022-07-31T10:10:17.083Z,37.60
2022-07-31T10:12:51.089Z,36.20
2022-07-31T10:15:21.705Z,34.90
2022-07-31T10:17:52.512Z,34.50
2022-07-31T10:20:22.611Z,35.80
2022-07-31T10:22:55.270Z,35.10
2022-07-31T10:25:26.383Z,35.90
2022-07-31T10:27:57.020Z,36.20
2022-07-31T10:30:28.953Z,37.40
2022-07-31T10:32:58.555Z,37.50
2022-07-31T10:35:26.806Z,37.60
2022-07-31T10:38:00.901Z,37.60
2022-07-31T10:40:37.747Z,38.20
2022-07-31T10:43:20.904Z,37.80
2022-07-31T10:45:51.486Z,37.40
2022-07-31T10:48:19.561Z,37.50
2022-07-31T10:50:48.168Z,36.90
2022-07-31T10:53:17.535Z,37.50
2022-07-31T10:55:46.049Z,37.00
2022-07-31T10:58:16.028Z,37.00
2022-07-31T11:00:45.467Z,36.60
2022-07-31T11:03:16.871Z,37.00
2022-07-31T11:06:02.003Z,37.10
2022-07-31T11:08:42.092Z,36.30
2022-07-31T11:11:11.271Z,36.50
2022-07-31T11:13:52.845Z,35.50
2022-07-31T11:16:20.995Z,35.40
2022-07-31T11:18:59.427Z,35.40
2022-07-31T11:21:38.848Z,35.60
2022-07-31T11:24:14.758Z,35.30
2022-07-31T11:26:52.064Z,35.80
2022-07-31T11:30:01.945Z,35.90
2022-07-31T11:32:24.830Z,35.90
2022-07-31T11:34:56.517Z,36.60
2022-07-31T11:37:27.502Z,36.50
2022-07-31T11:40:07.536Z,36.60
2022-07-31T11:42:44.570Z,36.10
2022-07-31T11:45:15.055Z,36.40
2022-07-31T11:48:11.736Z,36.20
2022-07-31T11:50:41.863Z,35.30
2022-07-31T11:53:09.803Z,35.50
2022-07-31T11:55:46.061Z,35.40
2022-07-31T11:58:15.193Z,35.00
2022-07-31T12:00:51.408Z,34.60
2022-07-31T12:03:20.467Z,35.10
2022-07-31T12:05:52.215Z,34.60
2022-07-31T12:08:22.017Z,34.20
2022-07-31T12:10:50.159Z,34.80
2022-07-31T12:13:19.483Z,35.30
2022-07-31T12:15:58.582Z,36.00
2022-07-31T12:18:28.712Z,35.70
2022-07-31T12:20:59.704Z,35.30
2022-07-31T12:23:41.357Z,35.10
2022-07-31T12:26:12.147Z,34.10
2022-07-31T12:28:40.064Z,34.80
2022-07-31T12:31:07.849Z,33.30
2022-07-31T12:33:42.455Z,33.50
2022-07-31T12:36:16.168Z,33.80
2022-07-31T12:38:47.796Z,32.70
2022-07-31T12:41:17.519Z,33.40
2022-07-31T12:43:51.298Z,33.10
2022-07-31T12:46:21.444Z,33.60
2022-07-31T12:48:49.331Z,33.20
2022-07-31T12:51:20.182Z,33.20
2022-07-31T12:54:08.418Z,33.10
2022-07-31T12:56:37.577Z,33.20
2022-07-31T12:59:06.469Z,32.00
2022-07-31T13:01:34.544Z,32.50
2022-07-31T13:04:03.530Z,32.00
2022-07-31T13:06:33.110Z,32.60
2022-07-31T13:09:00.923Z,33.00
2022-07-31T13:11:46.034Z,33.70
2022-07-31T13:14:15.797Z,33.80
2022-07-31T13:16:43.621Z,34.00
2022-07-31T13:19:11.596Z,33.10
2022-07-31T13:21:48.420Z,33.70
2022-07-31T13:24:16.781Z,32.00
2022-07-31T13:26:45.342Z,32.00
2022-07-31T13:29:13.975Z,32.00
2022-07-31T13:31:41.788Z,32.20
2022-07-31T13:34:09.704Z,32.40
2022-07-31T13:36:39.407Z,33.00
2022-07-31T13:39:09.188Z,33.00
2022-07-31T13:41:39.181Z,33.00
2022-07-31T13:44:07.984Z,33.80
2022-07-31T13:46:35.853Z,33.60
2022-07-31T13:49:08.151Z,33.60
2022-07-31T13:51:36.393Z,33.90
2022-07-31T13:54:04.618Z,34.00
2022-07-31T13:56:42.370Z,34.60
2022-07-31T13:59:12.560Z,33.60
2022-07-31T14:02:03.880Z,33.80
2022-07-31T14:04:31.424Z,32.30
2022-07-31T14:07:00.930Z,31.80
2022-07-31T14:09:29.875Z,32.60
2022-07-31T14:11:59.147Z,32.60
2022-07-31T14:14:31.810Z,32.60
2022-07-31T14:17:00.107Z,31.90
2022-07-31T14:19:28.021Z,31.50
2022-07-31T14:21:57.564Z,31.90
2022-07-31T14:24:25.699Z,31.90
2022-07-31T14:26:53.723Z,32.20
2022-07-31T14:29:22.860Z,31.80
2022-07-31T14:31:51.670Z,31.60
2022-07-31T14:34:19.533Z,31.50
2022-07-31T14:36:47.359Z,31.30
2022-07-31T14:39:15.233Z,31.70
2022-07-31T14:41:43.315Z,31.60
2022-07-31T14:44:11.110Z,32.00
2022-07-31T14:46:40.258Z,32.10
2022-07-31T14:49:08.628Z,32.50
2022-07-31T14:51:36.523Z,32.50
2022-07-31T14:54:05.095Z,32.80
2022-07-31T14:56:59.714Z,33.30
2022-07-31T14:59:27.106Z,33.80
2022-07-31T15:01:56.529Z,34.10
2022-07-31T15:04:24.391Z,33.60
2022-07-31T15:07:03.071Z,33.20
2022-07-31T15:09:40.415Z,33.00
2022-07-31T15:12:08.980Z,33.30
2022-07-31T15:14:36.766Z,33.40
2022-07-31T15:17:06.260Z,33.20
2022-07-31T15:19:34.409Z,33.30
2022-07-31T15:22:15.721Z,32.90
2022-07-31T15:24:48.794Z,33.10
2022-07-31T15:27:17.959Z,32.40
2022-07-31T15:30:04.087Z,32.10
2022-07-31T15:32:36.413Z,32.50
2022-07-31T15:35:04.976Z,32.80
2022-07-31T15:37:35.002Z,32.50
2022-07-31T15:40:05.367Z,32.70
2022-07-31T15:42:33.655Z,32.80
2022-07-31T15:45:01.579Z,32.90
2022-07-31T15:47:29.660Z,33.10
2022-07-31T15:49:58.917Z,33.30
2022-07-31T15:52:26.858Z,33.50
2022-07-31T15:54:54.825Z,33.20
2022-07-31T15:57:23.763Z,33.10
2022-07-31T15:59:54.244Z,32.90
2022-07-31T16:02:23.106Z,34.00
2022-07-31T16:04:52.933Z,34.10
2022-07-31T16:08:28.539Z,34.10
2022-07-31T16:10:17.692Z,34.70
2022-07-31T16:12:46.493Z,34.80
2022-07-31T16:15:15.015Z,34.70
2022-07-31T16:17:44.562Z,34.40
2022-07-31T16:20:25.253Z,34.10
2022-07-31T16:22:57.955Z,33.90
2022-07-31T16:25:26.656Z,33.50
2022-07-31T16:27:55.007Z,33.10
2022-07-31T16:30:27.482Z,33.30
2022-07-31T16:32:55.575Z,33.70
2022-07-31T16:35:26.065Z,34.00
2022-07-31T16:37:55.651Z,34.40
2022-07-31T16:40:28.533Z,35.00
2022-07-31T16:43:03.001Z,35.20
2022-07-31T16:45:49.968Z,35.00
2022-07-31T16:48:17.910Z,34.30
2022-07-31T16:50:48.208Z,34.40
2022-07-31T16:54:11.199Z,34.50
2022-07-31T16:56:11.753Z,35.30
2022-07-31T16:58:40.292Z,35.50
2022-07-31T17:01:57.905Z,35.30
2022-07-31T17:04:00.294Z,34.80
2022-07-31T17:06:36.346Z,34.50
2022-07-31T17:09:15.923Z,34.70
2022-07-31T17:11:45.851Z,35.00
2022-07-31T17:14:13.661Z,35.20
2022-07-31T17:16:46.844Z,34.90
2022-07-31T17:19:15.754Z,34.80
2022-07-31T17:21:44.658Z,34.90
2022-07-31T17:24:15.758Z,34.80
2022-07-31T17:26:45.262Z,35.50
2022-07-31T17:29:13.557Z,35.80
2022-07-31T17:31:41.421Z,35.90
2022-07-31T17:34:09.596Z,36.10
2022-07-31T17:36:37.825Z,35.70
2022-07-31T17:39:06.253Z,35.80
2022-07-31T17:41:39.047Z,35.90
2022-07-31T17:44:06.855Z,36.10
2022-07-31T17:46:36.507Z,36.60
2022-07-31T17:49:08.172Z,36.90
2022-07-31T17:51:36.173Z,37.00
2022-07-31T17:54:04.770Z,37.00
2022-07-31T17:56:32.544Z,36.90
2022-07-31T17:59:05.678Z,36.80
2022-07-31T18:01:34.460Z,37.10
2022-07-31T18:04:02.662Z,37.40
2022-07-31T18:06:30.518Z,37.60
2022-07-31T18:08:58.883Z,37.90
2022-07-31T18:11:26.862Z,38.20
2022-07-31T18:13:55.475Z,38.00
2022-07-31T18:16:30.123Z,38.00
2022-07-31T18:18:58.003Z,38.30
2022-07-31T18:21:25.813Z,38.60
2022-07-31T18:23:53.702Z,38.70
2022-07-31T18:26:22.524Z,39.10
2022-07-31T18:28:50.615Z,39.20
2022-07-31T18:31:34.966Z,39.40
2022-07-31T18:34:05.781Z,39.30
2022-07-31T18:36:34.044Z,39.50
2022-07-31T18:39:02.546Z,39.70
2022-07-31T18:41:30.569Z,39.70
2022-07-31T18:43:58.992Z,39.90
2022-07-31T18:46:27.027Z,40.20
2022-07-31T18:48:56.469Z,40.40
2022-07-31T18:51:26.394Z,40.70
2022-07-31T18:53:54.948Z,40.90
2022-07-31T18:56:23.594Z,41.20
2022-07-31T18:58:51.861Z,41.50
2022-07-31T19:01:19.810Z,41.60
2022-07-31T19:03:47.787Z,42.00
2022-07-31T19:06:16.227Z,42.70
2022-07-31T19:08:46.080Z,43.20
2022-07-31T19:11:13.989Z,43.60
2022-07-31T19:13:41.897Z,44.00
2022-07-31T19:16:09.751Z,44.60
2022-07-31T19:18:40.255Z,45.20
2022-07-31T19:21:21.155Z,45.40
2022-07-31T19:23:53.329Z,46.20
2022-07-31T19:26:22.061Z,47.00
2022-07-31T19:28:49.973Z,47.00
2022-07-31T19:31:18.296Z,47.10
2022-07-31T19:33:46.186Z,47.50
2022-07-31T19:36:15.314Z,47.90
2022-07-31T19:38:44.482Z,48.00
2022-07-31T19:41:15.546Z,48.40
2022-07-31T19:43:44.620Z,48.90
2022-07-31T19:46:13.005Z,49.20
2022-07-31T19:48:43.235Z,49.40
2022-07-31T19:51:11.936Z,49.70
2022-07-31T19:53:39.917Z,49.70
2022-07-31T19:56:07.783Z,50.00
2022-07-31T19:58:38.305Z,50.30
2022-07-31T20:01:06.997Z,50.30
2022-07-31T20:03:35.740Z,50.40
2022-07-31T20:06:04.684Z,50.10
2022-07-31T20:08:33.321Z,50.20
2022-07-31T20:11:03.457Z,50.60
2022-07-31T20:13:31.959Z,50.00
2022-07-31T20:16:01.561Z,52.20
2022-07-31T20:18:30.498Z,52.40
2022-07-31T20:21:02.520Z,52.50
2022-07-31T20:23:34.066Z,52.40
2022-07-31T20:26:02.447Z,52.30
2022-07-31T20:28:30.406Z,51.90
2022-07-31T20:30:58.675Z,52.10
2022-07-31T20:33:27.879Z,52.40
2022-07-31T20:35:55.682Z,50.50
2022-07-31T20:38:24.945Z,49.80
2022-07-31T20:40:56.021Z,49.90
2022-07-31T20:43:24.885Z,49.80
2022-07-31T20:45:53.438Z,49.40
2022-07-31T20:48:24.188Z,49.60
2022-07-31T20:50:53.973Z,50.50
2022-07-31T20:53:22.982Z,51.30
2022-07-31T20:55:50.891Z,52.20
2022-07-31T20:58:19.427Z,53.20
2022-07-31T21:00:48.283Z,53.60
2022-07-31T21:03:16.671Z,53.70
2022-07-31T21:05:44.627Z,54.20
2022-07-31T21:08:13.813Z,54.80
2022-07-31T21:10:41.664Z,54.80
2022-07-31T21:13:09.754Z,55.00
2022-07-31T21:15:42.394Z,54.90
2022-07-31T21:18:12.702Z,55.10
2022-07-31T21:20:52.177Z,54.70
2022-07-31T21:23:24.369Z,54.70
2022-07-31T21:25:53.237Z,55.00
2022-07-31T21:28:22.142Z,55.10
2022-07-31T21:30:50.480Z,55.10
2022-07-31T21:33:18.839Z,55.00
2022-07-31T21:35:47.350Z,55.10
2022-07-31T21:38:16.152Z,55.20
2022-07-31T21:40:46.611Z,54.80
2022-07-31T21:43:16.622Z,54.70
2022-07-31T21:45:55.329Z,54.60
2022-07-31T21:48:27.177Z,55.10
2022-07-31T21:50:55.704Z,55.20
2022-07-31T21:53:23.937Z,54.90
2022-07-31T21:55:53.131Z,55.40
2022-07-31T21:58:20.994Z,55.60
2022-07-31T22:00:48.903Z,55.70
2022-07-31T22:03:16.852Z,55.70
2022-07-31T22:06:02.347Z,55.90
2022-07-31T22:08:30.251Z,56.00
2022-07-31T22:10:59.425Z,56.40
2022-07-31T22:13:27.315Z,56.80
2022-07-31T22:16:00.189Z,57.10
2022-07-31T22:18:29.740Z,57.20
2022-07-31T22:20:58.096Z,57.30
2022-07-31T22:23:27.415Z,57.90
2022-07-31T22:25:55.750Z,57.90
2022-07-31T22:28:26.465Z,57.90
2022-07-31T22:30:54.987Z,58.30
2022-07-31T22:33:22.992Z,58.50
2022-07-31T22:35:59.692Z,58.00
2022-07-31T22:38:29.582Z,58.20
2022-07-31T22:40:57.681Z,58.60
2022-07-31T22:44:14.159Z,59.00
2022-07-31T22:46:15.416Z,59.20
2022-07-31T22:48:45.254Z,59.40
2022-07-31T22:51:14.813Z,58.90
2022-07-31T22:53:43.475Z,59.20
2022-07-31T22:56:11.713Z,59.90
2022-07-31T22:58:40.918Z,58.80
2022-07-31T23:01:08.782Z,58.40
2022-07-31T23:03:36.608Z,58.20
2022-07-31T23:06:31.559Z,57.30
2022-07-31T23:08:54.650Z,56.90
2022-07-31T23:11:24.371Z,56.60
2022-07-31T23:13:53.730Z,56.40
2022-07-31T23:16:22.316Z,55.60
2022-07-31T23:18:50.684Z,55.50
2022-07-31T23:21:19.377Z,55.70
2022-07-31T23:23:48.766Z,56.30
2022-07-31T23:26:17.940Z,56.10
2022-07-31T23:28:45.774Z,56.10
2022-07-31T23:31:15.134Z,56.50
2022-07-31T23:33:43.280Z,57.40
2022-07-31T23:36:11.185Z,58.20
2022-07-31T23:38:39.298Z,58.70
2022-07-31T23:41:07.205Z,59.30
2022-07-31T23:43:34.337Z,59.60
2022-07-31T23:46:02.224Z,60.00
2022-07-31T23:48:31.409Z,60.70
2022-07-31T23:50:59.441Z,60.70
2022-07-31T23:53:27.327Z,61.30
2022-07-31T23:55:55.164Z,61.30
2022-07-31T23:58:23.013Z,61.30
